Time;durP1;ratioP1;P1;durP2;ratioP2;P2;SDS_P1;SDS_P2;PMS_P1;PMS_P2;Temp;Humidity;BMP_temperature;BMP_pressure;BME280_temperature;BME280_humidity;BME280_pressure;Samples;Min_cycle;Max_cycle;Signal;HPM_P1;HPM_P2
2023/08/26 00:00:53;;;;;;;33.38;15.52;;;13.80;94.00;;;;;;4965187;28;20060;-81
2023/08/26 00:03:19;;;;;;;30.52;15.73;;;13.80;94.00;;;;;;4974777;28;20022;-81
2023/08/26 00:05:45;;;;;;;47.60;16.98;;;13.80;94.10;;;;;;4966062;28;20102;-80
2023/08/26 00:08:11;;;;;;;26.70;14.95;;;13.70;94.10;;;;;;4979177;28;20035;-80
2023/08/26 00:10:36;;;;;;;32.58;16.25;;;13.70;94.20;;;;;;4957256;28;20082;-81
2023/08/26 00:13:02;;;;;;;41.70;16.85;;;13.70;94.20;;;;;;4955153;28;20507;-81
2023/08/26 00:15:28;;;;;;;26.58;14.52;;;13.70;94.20;;;;;;4972596;28;20054;-82
2023/08/26 00:17:54;;;;;;;31.42;15.57;;;13.70;94.20;;;;;;4971579;28;20026;-81
2023/08/26 00:20:21;;;;;;;28.45;15.77;;;13.70;94.30;;;;;;4973089;28;20023;-82
2023/08/26 00:22:47;;;;;;;29.45;15.38;;;13.70;94.30;;;;;;4972871;28;20074;-80
2023/08/26 00:25:12;;;;;;;27.77;15.10;;;13.70;94.30;;;;;;4972830;28;20369;-81
2023/08/26 00:27:38;;;;;;;29.90;15.38;;;13.70;94.30;;;;;;4972670;28;20029;-81
2023/08/26 00:30:05;;;;;;;29.27;16.08;;;13.60;94.30;;;;;;4972870;28;20466;-80
2023/08/26 00:32:31;;;;;;;31.65;15.48;;;13.60;94.30;;;;;;4955633;28;20065;-81
2023/08/26 00:34:57;;;;;;;25.13;15.93;;;13.60;94.30;;;;;;4975159;28;20031;-81
2023/08/26 00:37:22;;;;;;;25.75;16.10;;;13.60;94.40;;;;;;4985324;28;20031;-81
2023/08/26 00:39:48;;;;;;;28.83;16.33;;;13.60;94.40;;;;;;4972945;28;20030;-80
2023/08/26 00:42:14;;;;;;;27.02;15.70;;;13.50;94.50;;;;;;4972956;28;20018;-80
2023/08/26 00:44:40;;;;;;;26.98;16.02;;;13.50;94.60;;;;;;4973422;28;20463;-80
2023/08/26 00:47:05;;;;;;;24.33;16.08;;;13.40;94.60;;;;;;4972869;28;20015;-80
2023/08/26 00:49:32;;;;;;;28.77;15.65;;;13.50;94.70;;;;;;4972711;28;20094;-81
2023/08/26 00:51:58;;;;;;;36.45;17.48;;;13.50;94.70;;;;;;4972546;28;20026;-81
2023/08/26 00:54:24;;;;;;;28.25;16.00;;;13.40;94.70;;;;;;4971561;28;20043;-80
2023/08/26 00:56:50;;;;;;;31.88;15.90;;;13.50;94.70;;;;;;4972530;28;20500;-81
2023/08/26 00:59:16;;;;;;;26.45;17.17;;;13.40;94.70;;;;;;4955143;28;20111;-80
2023/08/26 01:01:43;;;;;;;38.88;18.08;;;13.40;94.70;;;;;;4967737;28;20023;-81
2023/08/26 01:04:10;;;;;;;38.65;18.05;;;13.40;94.70;;;;;;4969432;28;20029;-82
2023/08/26 01:06:35;;;;;;;40.88;18.70;;;13.40;94.90;;;;;;4972777;28;20049;-81
2023/08/26 01:09:03;;;;;;;35.17;17.90;;;13.30;94.90;;;;;;4955123;28;20492;-82
2023/08/26 01:11:37;;;;;;;35.30;18.50;;;13.40;95.00;;;;;;4972657;28;20548;-81
2023/08/26 01:14:40;;;;;;;29.77;17.50;;;13.30;95.00;;;;;;4958397;28;20345;-81
2023/08/26 01:17:06;;;;;;;31.73;19.02;;;13.40;95.10;;;;;;4954950;28;20043;-81
2023/08/26 01:19:38;;;;;;;30.07;18.63;;;13.30;95.10;;;;;;4971100;28;20429;-81
2023/08/26 01:22:06;;;;;;;44.15;19.15;;;13.30;95.20;;;;;;4960758;28;20284;-81
2023/08/26 01:24:33;;;;;;;37.53;19.00;;;13.30;95.20;;;;;;4966134;28;20409;-82
2023/08/26 01:26:59;;;;;;;50.20;20.15;;;13.20;95.30;;;;;;4975187;28;20480;-83
2023/08/26 01:29:25;;;;;;;35.45;20.05;;;13.20;95.40;;;;;;4976117;28;20103;-81
2023/08/26 01:32:15;;;;;;;34.60;19.60;;;13.20;95.50;;;;;;4977859;28;20045;-82
2023/08/26 01:34:46;;;;;;;48.15;21.30;;;13.20;95.50;;;;;;4946560;28;20042;-81
2023/08/26 01:37:13;;;;;;;38.03;20.98;;;13.10;95.60;;;;;;4976479;28;20027;-81
2023/08/26 01:39:40;;;;;;;43.20;22.05;;;13.10;95.70;;;;;;4956323;28;20066;-81
2023/08/26 01:42:07;;;;;;;33.78;21.08;;;13.10;95.80;;;;;;4979501;28;20463;-81
2023/08/26 01:44:33;;;;;;;30.75;20.85;;;13.10;95.80;;;;;;4985235;28;20058;-81
2023/08/26 01:46:59;;;;;;;32.03;20.50;;;13.10;95.90;;;;;;4975787;28;20019;-82
2023/08/26 01:49:25;;;;;;;32.30;21.10;;;13.10;96.00;;;;;;4975273;28;20094;-83
2023/08/26 01:51:51;;;;;;;43.80;22.50;;;13.10;96.00;;;;;;4971221;28;20027;-82
2023/08/26 01:54:17;;;;;;;39.45;22.60;;;13.10;96.10;;;;;;4975072;28;20039;-83
2023/08/26 01:56:42;;;;;;;41.17;22.77;;;13.10;96.10;;;;;;4977218;28;20071;-81
2023/08/26 01:59:08;;;;;;;32.75;20.80;;;13.10;96.10;;;;;;4993015;28;20019;-82
2023/08/26 02:01:34;;;;;;;40.72;21.00;;;13.10;96.10;;;;;;4985801;28;20102;-82
2023/08/26 02:04:00;;;;;;;48.95;23.42;;;13.10;96.20;;;;;;4961964;28;20388;-82
2023/08/26 02:06:27;;;;;;;49.50;23.25;;;13.10;96.20;;;;;;4976462;28;20204;-82
2023/08/26 02:08:54;;;;;;;44.10;22.60;;;13.10;96.20;;;;;;4975658;28;20022;-82
2023/08/26 02:11:20;;;;;;;;;;;13.10;96.30;;;;;;4975311;28;20027;-82
2023/08/26 02:13:46;;;;;;;36.17;21.45;;;13.00;95.90;;;;;;4957486;28;19969;-82
2023/08/26 02:16:11;;;;;;;43.13;22.60;;;13.00;96.20;;;;;;4966463;28;20081;-82
2023/08/26 02:18:37;;;;;;;46.90;22.10;;;13.00;96.30;;;;;;4969575;28;20038;-82
2023/08/26 02:21:03;;;;;;;41.55;21.90;;;13.00;96.40;;;;;;4971635;28;20094;-83
2023/08/26 02:23:29;;;;;;;44.47;22.23;;;13.00;96.50;;;;;;4968076;28;20381;-82
2023/08/26 02:25:55;;;;;;;61.97;24.50;;;13.00;96.50;;;;;;4981150;28;20023;-82
2023/08/26 02:28:20;;;;;;;69.22;25.05;;;13.00;96.50;;;;;;4982677;28;20082;-82
2023/08/26 02:30:46;;;;;;;55.30;25.13;;;13.00;96.50;;;;;;4979842;28;20440;-82
2023/08/26 02:33:12;;;;;;;55.80;22.08;;;13.00;96.40;;;;;;4967540;28;20072;-83
2023/08/26 02:35:38;;;;;;;59.00;23.73;;;13.10;96.40;;;;;;4974814;28;20044;-82
2023/08/26 02:38:04;;;;;;;43.10;19.58;;;13.10;96.40;;;;;;4963052;28;20026;-82
2023/08/26 02:40:29;;;;;;;32.47;18.35;;;13.10;96.40;;;;;;4986330;28;20033;-82
2023/08/26 02:42:55;;;;;;;37.60;20.77;;;13.10;96.40;;;;;;4956830;28;20389;-83
2023/08/26 02:45:21;;;;;;;43.40;18.33;;;13.20;96.30;;;;;;4974543;28;20034;-82
2023/08/26 02:47:47;;;;;;;38.95;18.75;;;13.20;96.20;;;;;;4975052;28;20019;-81
2023/08/26 02:50:12;;;;;;;39.28;19.25;;;13.30;96.20;;;;;;4972396;28;20035;-82
2023/08/26 02:52:38;;;;;;;36.05;19.77;;;13.30;96.00;;;;;;4974065;28;20071;-82
2023/08/26 02:55:04;;;;;;;32.55;18.63;;;13.40;96.00;;;;;;4973741;28;20031;-82
2023/08/26 02:57:30;;;;;;;30.35;18.42;;;13.50;95.90;;;;;;4970844;28;20078;-82
2023/08/26 02:59:56;;;;;;;28.95;18.05;;;13.50;95.80;;;;;;4974263;28;20026;-82
2023/08/26 03:02:24;;;;;;;32.55;18.25;;;13.60;95.70;;;;;;4971089;28;20023;-83
2023/08/26 03:04:51;;;;;;;32.03;18.05;;;13.60;95.50;;;;;;4974342;28;20030;-82
2023/08/26 03:07:16;;;;;;;32.78;18.20;;;13.70;95.40;;;;;;4956765;28;20114;-82
2023/08/26 03:09:42;;;;;;;35.97;18.13;;;13.70;95.30;;;;;;4974105;28;20058;-81
2023/08/26 03:12:08;;;;;;;30.23;19.02;;;13.80;95.30;;;;;;4974283;28;20033;-81
2023/08/26 03:14:34;;;;;;;25.65;15.63;;;13.90;95.10;;;;;;4974150;28;20493;-81
2023/08/26 03:16:59;;;;;;;26.70;15.15;;;14.00;94.80;;;;;;4980244;28;20030;-84
2023/08/26 03:19:26;;;;;;;25.85;13.93;;;14.10;94.50;;;;;;4986724;28;20018;-81
2023/08/26 03:21:51;;;;;;;23.63;14.43;;;14.20;94.20;;;;;;4966155;28;20055;-83
2023/08/26 03:24:17;;;;;;;24.33;15.60;;;14.30;93.90;;;;;;4980341;28;20488;-80
2023/08/26 03:26:43;;;;;;;31.20;16.20;;;14.40;93.70;;;;;;4964409;28;20389;-81
2023/08/26 03:29:09;;;;;;;25.38;14.23;;;14.50;93.50;;;;;;4967981;28;20102;-82
2023/08/26 03:31:35;;;;;;;18.98;14.20;;;14.50;93.20;;;;;;4974620;28;20113;-82
2023/08/26 03:34:01;;;;;;;22.58;13.88;;;14.60;93.00;;;;;;4976981;28;20511;-81
2023/08/26 03:36:27;;;;;;;27.30;13.38;;;14.70;92.80;;;;;;4970900;28;20045;-81
2023/08/26 03:38:53;;;;;;;35.13;15.10;;;14.70;92.70;;;;;;4974051;28;20023;-81
2023/08/26 03:41:18;;;;;;;20.63;14.13;;;14.80;92.50;;;;;;4952540;28;20023;-81
2023/08/26 03:43:44;;;;;;;26.13;15.05;;;14.80;92.40;;;;;;4973567;28;20019;-82
2023/08/26 03:46:10;;;;;;;20.70;13.70;;;14.80;92.40;;;;;;4956124;28;20052;-83
2023/08/26 03:48:36;;;;;;;27.88;14.63;;;14.90;92.40;;;;;;4974498;28;20058;-82
2023/08/26 03:51:02;;;;;;;23.17;13.20;;;15.00;92.40;;;;;;4973179;28;20039;-82
2023/08/26 03:53:29;;;;;;;17.42;13.18;;;15.10;92.60;;;;;;4962299;28;20050;-82
2023/08/26 03:55:55;;;;;;;26.55;14.65;;;15.20;92.00;;;;;;4970513;28;20416;-82
2023/08/26 03:58:21;;;;;;;18.33;13.60;;;15.30;91.80;;;;;;4973260;28;20027;-82
2023/08/26 04:00:47;;;;;;;20.67;13.55;;;15.40;91.60;;;;;;4984905;28;20435;-82
2023/08/26 04:03:12;;;;;;;18.58;13.05;;;15.40;91.40;;;;;;4975186;28;20064;-81
2023/08/26 04:05:38;;;;;;;19.77;12.75;;;15.40;91.30;;;;;;4980227;28;20023;-81
2023/08/26 04:08:04;;;;;;;18.27;12.02;;;15.40;91.20;;;;;;4986636;28;20015;-80
2023/08/26 04:10:33;;;;;;;15.45;11.32;;;15.40;91.10;;;;;;4977256;28;20031;-81
2023/08/26 04:13:29;;;;;;;16.08;10.50;;;15.50;90.90;;;;;;4978887;28;20427;-81
2023/08/26 04:15:56;;;;;;;20.58;10.45;;;15.60;90.60;;;;;;4988079;28;20034;-81
2023/08/26 04:18:23;;;;;;;20.92;9.63;;;15.80;90.10;;;;;;4975356;28;20027;-82
2023/08/26 04:20:49;;;;;;;18.33;9.65;;;15.90;89.30;;;;;;4973430;28;20082;-82
2023/08/26 04:23:15;;;;;;;18.20;8.93;;;16.10;89.00;;;;;;4972456;28;20027;-82
2023/08/26 04:25:42;;;;;;;16.23;9.68;;;16.30;88.20;;;;;;4956376;28;20440;-83
2023/08/26 04:28:08;;;;;;;24.42;9.60;;;16.50;87.30;;;;;;4972903;28;20050;-84
2023/08/26 04:30:36;;;;;;;12.23;8.82;;;16.70;86.80;;;;;;4973567;28;20073;-83
2023/08/26 04:33:02;;;;;;;;;;;17.00;85.60;;;;;;4973803;28;20034;-83
2023/08/26 04:35:27;;;;;;;10.25;8.55;;;17.30;87.00;;;;;;4973076;28;19921;-83
2023/08/26 04:37:53;;;;;;;13.35;9.38;;;17.60;84.70;;;;;;4972796;28;20019;-81
2023/08/26 04:40:19;;;;;;;16.17;9.15;;;18.40;82.00;;;;;;4972868;28;20391;-82
2023/08/26 04:42:45;;;;;;;12.45;9.10;;;19.20;78.90;;;;;;4972700;28;20037;-83
2023/08/26 04:45:14;;;;;;;10.98;8.55;;;20.00;76.40;;;;;;4972732;28;20022;-82
2023/08/26 04:47:41;;;;;;;11.70;7.93;;;20.60;73.60;;;;;;4979899;28;20030;-83
2023/08/26 04:50:08;;;;;;;22.08;9.30;;;21.00;71.00;;;;;;4977690;28;20019;-83
2023/08/26 04:52:34;;;;;;;14.02;8.52;;;21.50;70.20;;;;;;4983262;28;20074;-83
2023/08/26 04:55:00;;;;;;;12.05;8.38;;;22.00;68.10;;;;;;4987432;28;20050;-81
2023/08/26 04:57:25;;;;;;;14.88;7.70;;;22.50;66.10;;;;;;4976504;28;20079;-82
2023/08/26 04:59:51;;;;;;;12.65;7.65;;;22.90;64.70;;;;;;4976369;28;20033;-81
2023/08/26 05:02:18;;;;;;;9.23;6.97;;;23.40;63.30;;;;;;4973843;28;20023;-81
2023/08/26 05:04:46;;;;;;;10.82;6.53;;;24.00;60.70;;;;;;4959225;28;20476;-83
2023/08/26 05:07:12;;;;;;;11.15;6.22;;;24.40;59.20;;;;;;4952368;28;20031;-81
2023/08/26 05:09:38;;;;;;;16.60;6.15;;;24.60;58.60;;;;;;4976151;28;20043;-82
2023/08/26 05:12:04;;;;;;;13.38;6.03;;;24.80;57.20;;;;;;4958263;28;20046;-81
2023/08/26 05:14:29;;;;;;;14.80;5.90;;;24.70;56.60;;;;;;4964487;28;20047;-81
2023/08/26 05:16:55;;;;;;;12.02;5.45;;;24.60;55.70;;;;;;4958274;28;20065;-81
2023/08/26 05:19:21;;;;;;;9.85;4.13;;;24.20;55.70;;;;;;4969028;28;20095;-81
2023/08/26 05:21:47;;;;;;;8.18;4.88;;;23.50;56.20;;;;;;4966611;28;20031;-82
2023/08/26 05:24:13;;;;;;;6.43;4.85;;;23.00;57.40;;;;;;4957996;28;20070;-81
2023/08/26 05:26:39;;;;;;;9.45;4.80;;;22.60;58.00;;;;;;4974527;28;20030;-81
2023/08/26 05:29:04;;;;;;;6.90;4.32;;;22.30;58.60;;;;;;4952186;28;20495;-82
2023/08/26 05:31:31;;;;;;;7.88;4.53;;;22.00;58.70;;;;;;4977210;28;20043;-81
2023/08/26 05:33:57;;;;;;;9.13;5.15;;;21.70;59.40;;;;;;4973116;28;20019;-82
2023/08/26 05:36:23;;;;;;;8.15;4.78;;;21.40;60.30;;;;;;4958098;28;20034;-82
2023/08/26 05:38:49;;;;;;;8.93;5.00;;;21.30;60.10;;;;;;4975539;28;20388;-82
2023/08/26 05:41:16;;;;;;;8.63;5.45;;;21.10;61.50;;;;;;4957264;28;20030;-82
2023/08/26 05:43:41;;;;;;;10.82;5.28;;;20.90;61.20;;;;;;4975157;28;20023;-82
2023/08/26 05:46:07;;;;;;;11.43;5.22;;;20.60;61.90;;;;;;4974993;28;20154;-82
2023/08/26 05:48:33;;;;;;;21.58;6.80;;;20.40;62.70;;;;;;4957620;28;20114;-81
2023/08/26 05:50:59;;;;;;;18.55;6.93;;;20.20;64.00;;;;;;4975024;28;20043;-80
2023/08/26 05:53:27;;;;;;;16.63;6.75;;;20.00;65.10;;;;;;4963380;28;20415;-81
2023/08/26 05:55:55;;;;;;;22.15;8.15;;;19.90;65.10;;;;;;4973324;28;20153;-80
2023/08/26 05:58:21;;;;;;;35.20;7.63;;;19.80;66.40;;;;;;4953408;28;20377;-82
2023/08/26 06:00:50;;;;;;;16.35;5.43;;;19.90;67.10;;;;;;4977711;28;20026;-82
2023/08/26 06:03:16;;;;;;;8.05;4.20;;;19.90;65.60;;;;;;4984686;28;20026;-82
2023/08/26 06:05:42;;;;;;;13.90;4.82;;;19.90;64.50;;;;;;4973237;28;20062;-85
2023/08/26 06:08:09;;;;;;;18.95;6.10;;;20.00;64.10;;;;;;4980444;28;20027;-85
2023/08/26 06:10:35;;;;;;;8.75;5.20;;;20.00;64.20;;;;;;4976090;28;20069;-83
2023/08/26 06:13:01;;;;;;;11.05;4.43;;;20.10;64.20;;;;;;4974896;28;20030;-83
2023/08/26 06:15:27;;;;;;;22.45;6.38;;;20.20;63.70;;;;;;4956541;28;20045;-83
2023/08/26 06:17:53;;;;;;;13.35;4.22;;;20.30;64.00;;;;;;4971130;28;20019;-82
2023/08/26 06:20:19;;;;;;;6.88;4.18;;;20.50;62.90;;;;;;4974741;28;20019;-82
2023/08/26 06:22:47;;;;;;;11.35;4.43;;;20.60;62.60;;;;;;4956208;28;20687;-83
2023/08/26 06:25:13;;;;;;;8.50;4.43;;;20.90;62.50;;;;;;4969760;28;20584;-83
2023/08/26 06:27:40;;;;;;;23.17;5.82;;;21.20;62.30;;;;;;4972474;28;20051;-82
2023/08/26 06:30:07;;;;;;;8.57;4.65;;;21.60;62.10;;;;;;4974718;28;20035;-84
2023/08/26 06:32:33;;;;;;;8.18;4.38;;;22.10;60.20;;;;;;4959531;28;20148;-84
2023/08/26 06:34:58;;;;;;;14.02;4.30;;;22.20;59.10;;;;;;4963196;28;20023;-83
2023/08/26 06:37:24;;;;;;;15.02;5.15;;;22.20;59.10;;;;;;4970959;28;20102;-83
2023/08/26 06:39:50;;;;;;;10.15;4.30;;;22.60;59.20;;;;;;4948508;28;20023;-83
2023/08/26 06:42:16;;;;;;;11.48;4.55;;;22.90;57.80;;;;;;4957059;28;20023;-85
2023/08/26 06:44:42;;;;;;;6.50;3.70;;;22.90;58.10;;;;;;4966279;28;20106;-83
2023/08/26 06:47:09;;;;;;;9.77;3.83;;;22.90;57.50;;;;;;4975797;28;20099;-83
2023/08/26 06:49:35;;;;;;;11.80;4.03;;;22.90;57.50;;;;;;4980943;28;20451;-82
2023/08/26 06:52:01;;;;;;;9.27;4.32;;;23.00;57.40;;;;;;4955916;28;20066;-82
2023/08/26 06:54:27;;;;;;;10.38;4.20;;;23.10;57.50;;;;;;4975213;28;20079;-83
2023/08/26 06:56:52;;;;;;;7.40;3.47;;;23.30;56.70;;;;;;4956605;28;20437;-84
2023/08/26 06:59:18;;;;;;;9.75;3.80;;;23.40;55.90;;;;;;4973925;28;20055;-84
2023/08/26 07:01:44;;;;;;;6.07;3.28;;;23.40;56.10;;;;;;4944253;28;20023;-83
2023/08/26 07:04:11;;;;;;;5.40;3.33;;;23.30;55.60;;;;;;4979975;28;20029;-83
2023/08/26 07:06:37;;;;;;;14.00;4.55;;;23.70;55.80;;;;;;4973902;28;20034;-81
2023/08/26 07:09:06;;;;;;;13.27;5.15;;;24.60;55.00;;;;;;4969949;28;20027;-85
2023/08/26 07:11:32;;;;;;;11.25;4.20;;;25.40;53.40;;;;;;4955602;28;20034;-88
2023/08/26 07:13:58;;;;;;;22.67;5.83;;;25.80;51.60;;;;;;4942008;28;20023;-86
2023/08/26 07:16:28;;;;;;;7.40;3.55;;;25.80;51.30;;;;;;4973555;28;20256;-83
2023/08/26 07:18:54;;;;;;;12.10;3.45;;;25.90;50.60;;;;;;4964286;28;20038;-80
2023/08/26 07:21:19;;;;;;;13.30;3.85;;;26.00;50.20;;;;;;4970171;28;20027;-81
2023/08/26 07:23:45;;;;;;;7.47;2.70;;;26.00;49.80;;;;;;4971830;28;20038;-80
2023/08/26 07:26:11;;;;;;;7.10;3.22;;;25.90;49.70;;;;;;4971315;28;20038;-82
2023/08/26 07:28:37;;;;;;;9.82;3.17;;;25.80;49.70;;;;;;4954105;28;20043;-79
2023/08/26 07:31:05;;;;;;;14.05;4.53;;;25.60;49.90;;;;;;4967704;28;20034;-83
2023/08/26 07:33:31;;;;;;;15.40;4.32;;;25.70;49.90;;;;;;4974774;28;20063;-83
2023/08/26 07:36:07;;;;;;;14.32;4.97;;;25.60;49.60;;;;;;4974006;28;20078;-83
2023/08/26 07:38:34;;;;;;;9.88;3.25;;;25.70;50.00;;;;;;4955965;28;20034;-84
2023/08/26 07:41:00;;;;;;;20.80;5.13;;;25.40;49.60;;;;;;4973629;28;20126;-85
2023/08/26 07:43:25;;;;;;;8.25;3.33;;;24.90;50.20;;;;;;4973551;28;20058;-83
2023/08/26 07:45:51;;;;;;;7.40;3.10;;;24.40;51.10;;;;;;4964903;28;20385;-84
2023/08/26 07:48:17;;;;;;;6.88;3.33;;;24.00;51.70;;;;;;4961801;28;20023;-85
2023/08/26 07:50:43;;;;;;;14.10;4.15;;;23.70;52.50;;;;;;4973190;28;20031;-83
2023/08/26 07:53:09;;;;;;;11.07;4.45;;;23.30;53.30;;;;;;4952485;28;20045;-84
2023/08/26 07:55:35;;;;;;;9.32;3.83;;;22.90;54.40;;;;;;4977587;28;20026;-83
2023/08/26 07:58:01;;;;;;;13.65;3.63;;;22.70;55.10;;;;;;4994526;28;20070;-85
2023/08/26 08:00:27;;;;;;;7.75;4.25;;;22.30;55.40;;;;;;4945921;28;20023;-84
2023/08/26 08:02:56;;;;;;;14.15;4.63;;;22.00;56.50;;;;;;4968037;28;20391;-84
2023/08/26 08:05:22;;;;;;;15.27;5.95;;;21.80;57.00;;;;;;4988349;28;20019;-84
2023/08/26 08:07:48;;;;;;;17.35;5.35;;;21.60;57.70;;;;;;4970490;28;20158;-86
2023/08/26 08:10:13;;;;;;;8.32;3.50;;;21.50;58.00;;;;;;4972833;28;20031;-84
2023/08/26 08:12:39;;;;;;;32.45;6.90;;;21.40;57.90;;;;;;4953468;28;20038;-85
2023/08/26 08:15:06;;;;;;;25.80;5.85;;;21.10;58.70;;;;;;4954934;28;20063;-87
2023/08/26 08:17:32;;;;;;;8.05;4.82;;;21.10;59.10;;;;;;4944661;28;20030;-86
2023/08/26 08:19:58;;;;;;;11.10;4.07;;;21.10;59.10;;;;;;4966728;28;20346;-85
2023/08/26 08:22:41;;;;;;;12.23;6.57;;;21.10;59.20;;;;;;4948317;28;20030;-85
2023/08/26 08:25:07;;;;;;;10.45;4.20;;;21.00;59.80;;;;;;4963843;28;20081;-84
2023/08/26 08:27:34;;;;;;;18.40;5.47;;;20.90;60.10;;;;;;4948010;28;20030;-84
2023/08/26 08:30:00;;;;;;;18.80;5.18;;;20.70;60.60;;;;;;4959711;28;20035;-85
2023/08/26 08:32:26;;;;;;;20.50;6.80;;;20.60;61.20;;;;;;4971949;28;20042;-86
2023/08/26 08:34:52;;;;;;;15.88;5.25;;;20.70;61.40;;;;;;4973740;28;20098;-85
2023/08/26 08:37:18;;;;;;;16.95;5.88;;;20.70;61.10;;;;;;4959754;28;20539;-88
2023/08/26 08:39:44;;;;;;;25.40;7.25;;;20.70;61.30;;;;;;4951082;28;20060;-83
2023/08/26 08:42:15;;;;;;;24.15;5.68;;;20.70;61.90;;;;;;4960538;28;20026;-83
2023/08/26 08:44:42;;;;;;;10.27;5.38;;;20.80;62.20;;;;;;4978743;28;20122;-85
2023/08/26 08:47:08;;;;;;;22.40;5.97;;;20.70;62.30;;;;;;4985996;28;20102;-83
2023/08/26 08:49:37;;;;;;;15.40;5.50;;;20.60;63.00;;;;;;4966995;28;20030;-83
2023/08/26 08:52:07;;;;;;;15.70;5.70;;;20.50;63.60;;;;;;4982667;28;20031;-83
2023/08/26 08:54:35;;;;;;;20.23;5.45;;;20.40;64.10;;;;;;4975734;28;20392;-84
2023/08/26 08:57:03;;;;;;;11.70;5.57;;;20.30;64.50;;;;;;4979489;28;20543;-83
2023/08/26 08:59:32;;;;;;;12.55;4.72;;;20.20;65.00;;;;;;4977129;28;20050;-87
2023/08/26 09:01:59;;;;;;;14.63;8.93;;;20.30;65.40;;;;;;4977867;28;20045;-81
2023/08/26 09:04:28;;;;;;;12.40;4.95;;;20.20;66.00;;;;;;4960845;28;20019;-87
2023/08/26 09:06:54;;;;;;;21.60;8.77;;;20.10;66.70;;;;;;4974727;28;20497;-82
2023/08/26 09:09:21;;;;;;;8.10;4.40;;;20.10;67.00;;;;;;4968747;28;20102;-83
2023/08/26 09:11:48;;;;;;;14.35;6.05;;;20.10;67.30;;;;;;4960814;28;20050;-83
2023/08/26 09:14:14;;;;;;;30.90;9.02;;;20.00;67.90;;;;;;4961823;28;20020;-83
2023/08/26 09:16:42;;;;;;;11.57;4.95;;;20.10;68.30;;;;;;4975910;28;20034;-83
2023/08/26 09:19:12;;;;;;;33.90;7.53;;;20.30;68.30;;;;;;4970423;28;20027;-83
2023/08/26 09:21:45;;;;;;;8.10;4.50;;;20.40;68.00;;;;;;4972689;28;20023;-83
2023/08/26 09:24:15;;;;;;;11.27;6.07;;;20.40;67.50;;;;;;4943781;28;20027;-82
2023/08/26 09:26:59;;;;;;;9.75;4.90;;;20.40;68.00;;;;;;4976657;28;20026;-82
2023/08/26 09:29:25;;;;;;;15.63;5.07;;;20.40;68.30;;;;;;4974836;28;20031;-82
2023/08/26 09:31:55;;;;;;;9.85;5.40;;;20.50;68.70;;;;;;4958998;28;20130;-83
2023/08/26 09:34:28;;;;;;;8.50;5.18;;;20.40;68.80;;;;;;4974694;28;20035;-83
2023/08/26 09:36:54;;;;;;;9.80;5.30;;;20.30;69.10;;;;;;4971961;28;20027;-83
2023/08/26 09:39:21;;;;;;;11.45;6.20;;;20.20;69.90;;;;;;4962213;28;20511;-83
2023/08/26 09:41:48;;;;;;;12.45;5.05;;;20.20;70.20;;;;;;4985166;28;20404;-83
2023/08/26 09:44:17;;;;;;;6.93;3.97;;;20.20;69.90;;;;;;4959028;28;20067;-85
2023/08/26 09:46:54;;;;;;;8.38;4.68;;;20.00;69.90;;;;;;4975768;28;20054;-83
2023/08/26 09:49:20;;;;;;;25.42;14.05;;;20.00;70.50;;;;;;4973020;28;20050;-81
2023/08/26 09:51:48;;;;;;;15.55;6.65;;;20.00;71.00;;;;;;4973576;28;20039;-81
2023/08/26 09:54:23;;;;;;;11.80;5.60;;;19.90;71.50;;;;;;4975522;28;20527;-82
2023/08/26 09:56:50;;;;;;;15.75;5.47;;;19.90;71.60;;;;;;4954492;28;20109;-83
2023/08/26 09:59:17;;;;;;;19.40;7.15;;;19.70;72.20;;;;;;4953780;28;20050;-84
2023/08/26 10:01:43;;;;;;;30.88;10.20;;;19.60;72.90;;;;;;4943202;28;20027;-83
2023/08/26 10:04:09;;;;;;;19.20;7.30;;;19.50;73.20;;;;;;4957386;28;20030;-82
2023/08/26 10:06:42;;;;;;;21.80;5.80;;;19.60;72.80;;;;;;4974786;28;20707;-83
2023/08/26 10:09:24;;;;;;;14.82;5.25;;;19.50;72.50;;;;;;4968648;28;20365;-80
2023/08/26 10:11:54;;;;;;;11.90;4.55;;;19.40;72.30;;;;;;4957155;28;20391;-82
2023/08/26 10:14:24;;;;;;;17.70;4.53;;;19.40;72.60;;;;;;4971776;28;20019;-83
2023/08/26 10:16:53;;;;;;;5.47;4.22;;;19.40;73.60;;;;;;4974767;28;20074;-82
2023/08/26 10:19:20;;;;;;;8.70;4.65;;;19.30;73.80;;;;;;4974906;28;20026;-82
2023/08/26 10:21:46;;;;;;;;;;;19.10;75.10;;;;;;4975097;28;20027;-83
2023/08/26 10:24:13;;;;;;;11.23;4.28;;;19.00;74.30;;;;;;4972504;28;19910;-84
2023/08/26 10:26:39;;;;;;;7.47;3.90;;;18.90;76.00;;;;;;4974829;28;20029;-83
2023/08/26 10:29:06;;;;;;;12.93;4.95;;;18.80;76.20;;;;;;4965660;28;20039;-80
2023/08/26 10:31:34;;;;;;;7.55;3.25;;;18.70;76.90;;;;;;4972798;28;20480;-83
2023/08/26 10:34:01;;;;;;;;;;;18.60;75.60;;;;;;4947295;28;20062;-84
2023/08/26 10:36:27;;;;;;;8.50;3.17;;;18.60;75.60;;;;;;4954140;28;19906;-84
2023/08/26 10:38:58;;;;;;;14.68;4.93;;;18.60;75.80;;;;;;4956980;28;20400;-84
2023/08/26 10:41:24;;;;;;;17.67;5.50;;;18.60;76.10;;;;;;4957191;28;20031;-83
2023/08/26 10:43:52;;;;;;;23.63;6.50;;;18.60;75.80;;;;;;4973937;28;20023;-84
2023/08/26 10:46:18;;;;;;;;;;;18.50;76.10;;;;;;4944046;28;20027;-83
2023/08/26 10:48:57;;;;;;;22.10;7.78;;;18.50;75.60;;;;;;4957116;28;19912;-84
2023/08/26 10:51:24;;;;;;;19.35;8.80;;;18.40;76.80;;;;;;4976011;28;20060;-82
2023/08/26 10:53:50;;;;;;;7.32;3.60;;;18.50;77.40;;;;;;4971694;28;20043;-81
2023/08/26 10:56:20;;;;;;;6.57;3.55;;;18.50;77.00;;;;;;4956749;28;20042;-81
2023/08/26 10:58:48;;;;;;;10.82;3.83;;;18.30;77.30;;;;;;4956659;28;20023;-84
2023/08/26 11:01:15;;;;;;;8.32;4.32;;;18.10;77.60;;;;;;4947172;28;20034;-81
2023/08/26 11:03:44;;;;;;;5.65;4.53;;;18.00;78.50;;;;;;4954026;28;20034;-85
2023/08/26 11:06:13;;;;;;;7.10;4.53;;;18.00;78.50;;;;;;4956434;28;20031;-80
2023/08/26 11:08:39;;;;;;;12.32;5.35;;;18.10;78.90;;;;;;4973767;28;20540;-81
2023/08/26 11:11:10;;;;;;;10.38;4.47;;;18.20;79.30;;;;;;4956211;28;20038;-83
2023/08/26 11:13:36;;;;;;;15.70;5.07;;;18.30;78.40;;;;;;4975755;28;20022;-83
2023/08/26 11:16:02;;;;;;;22.55;6.63;;;18.20;78.20;;;;;;4974656;28;20027;-83
2023/08/26 11:18:29;;;;;;;14.68;5.22;;;18.10;79.10;;;;;;4977694;28;20019;-81
2023/08/26 11:20:54;;;;;;;12.68;6.28;;;18.10;79.20;;;;;;4957922;28;20034;-81
2023/08/26 11:23:24;;;;;;;7.47;5.07;;;18.10;79.30;;;;;;4955964;28;20023;-80
2023/08/26 11:25:50;;;;;;;55.67;23.98;;;18.10;78.70;;;;;;4970490;28;20038;-84
2023/08/26 11:28:15;;;;;;;10.20;4.97;;;18.20;79.50;;;;;;4960202;28;20023;-84
2023/08/26 11:30:43;;;;;;;13.80;4.90;;;18.40;78.60;;;;;;4973879;28;20114;-81
2023/08/26 11:33:12;;;;;;;5.82;3.97;;;18.40;78.20;;;;;;4955992;28;20518;-81
2023/08/26 11:35:45;;;;;;;24.00;6.95;;;18.40;78.30;;;;;;4956640;28;20085;-81
2023/08/26 11:38:12;;;;;;;14.48;5.63;;;18.40;78.80;;;;;;4975053;28;20118;-82
2023/08/26 11:40:38;;;;;;;10.90;4.17;;;18.50;78.60;;;;;;4981372;28;20054;-81
2023/08/26 11:43:12;;;;;;;9.10;4.20;;;18.50;78.40;;;;;;4980241;28;20265;-83
2023/08/26 11:45:42;;;;;;;11.13;5.07;;;18.50;78.20;;;;;;4962151;28;20492;-81
2023/08/26 11:48:12;;;;;;;14.25;5.15;;;18.40;78.80;;;;;;4969491;28;20420;-83
2023/08/26 11:50:40;;;;;;;10.93;5.18;;;18.30;79.20;;;;;;4976244;28;20054;-80
2023/08/26 11:53:06;;;;;;;;;;;18.30;79.60;;;;;;4974584;28;20099;-81
2023/08/26 11:55:34;;;;;;;16.20;6.70;;;18.20;79.40;;;;;;4972710;28;19910;-79
2023/08/26 11:58:02;;;;;;;23.23;7.72;;;18.20;80.50;;;;;;4972378;28;20046;-81
2023/08/26 12:00:28;;;;;;;18.70;6.18;;;18.30;81.90;;;;;;4972986;28;20030;-82
2023/08/26 12:03:02;;;;;;;7.60;5.57;;;18.40;81.20;;;;;;4972676;28;20030;-82
2023/08/26 12:05:40;;;;;;;6.78;4.80;;;18.40;81.00;;;;;;4955159;28;20432;-82
2023/08/26 12:08:19;;;;;;;12.18;5.65;;;18.10;82.40;;;;;;4972722;28;20069;-82
2023/08/26 12:10:49;;;;;;;15.68;6.13;;;17.90;83.00;;;;;;4973055;28;20086;-82
2023/08/26 12:13:16;;;;;;;27.15;8.27;;;17.90;83.90;;;;;;4956275;28;20232;-83
2023/08/26 12:15:42;;;;;;;8.00;4.90;;;18.00;84.50;;;;;;4974516;28;20106;-92
2023/08/26 12:18:11;;;;;;;11.50;5.33;;;18.20;83.70;;;;;;4963030;28;20027;-88
2023/08/26 12:20:40;;;;;;;9.65;4.90;;;18.00;83.90;;;;;;4976731;28;20019;-83
2023/08/26 12:23:07;;;;;;;14.52;5.70;;;18.00;84.50;;;;;;4968504;28;20023;-84
2023/08/26 12:25:39;;;;;;;7.63;5.90;;;18.00;85.00;;;;;;4956001;28;20058;-84
2023/08/26 12:28:12;;;;;;;6.95;5.45;;;17.90;85.40;;;;;;4955794;28;20034;-82
2023/08/26 12:30:40;;;;;;;6.57;5.10;;;17.80;86.40;;;;;;4973279;28;20500;-84
2023/08/26 12:33:06;;;;;;;12.73;6.75;;;17.70;87.20;;;;;;4974140;28;20027;-83
2023/08/26 12:35:36;;;;;;;8.10;5.60;;;17.60;88.20;;;;;;4975508;28;20023;-84
2023/08/26 12:38:02;;;;;;;7.28;5.22;;;17.60;88.50;;;;;;4975180;28;20019;-82